Time;durP1;ratioP1;P1;durP2;ratioP2;P2;SDS_P1;SDS_P2;PMS_P1;PMS_P2;Temp;Humidity;BMP_temperature;BMP_pressure;BME280_temperature;BME280_humidity;BME280_pressure;Samples;Min_cycle;Max_cycle;Signal;HPM_P1;HPM_P2
2022/03/27 00:00:13;;;;;;;27.63;13.20;;;;;;;9.69;32.17;94730.44;4961910;28;20122;-75
2022/03/27 00:02:40;;;;;;;22.70;12.25;;;;;;;10.09;31.59;94715.81;4963161;28;20353;-74
2022/03/27 00:05:06;;;;;;;20.45;11.07;;;;;;;10.54;30.99;94740.19;4958869;28;20035;-74
2022/03/27 00:07:32;;;;;;;20.50;10.57;;;;;;;10.36;31.59;94731.16;4959466;28;20071;-74
2022/03/27 00:09:57;;;;;;;21.20;11.30;;;;;;;10.71;30.81;94725.25;4961678;28;20122;-72
2022/03/27 00:12:27;;;;;;;28.88;12.90;;;;;;;10.78;30.71;94726.75;4981575;28;20489;-73
2022/03/27 00:14:52;;;;;;;23.48;12.05;;;;;;;10.83;30.66;94722.16;4963279;28;20023;-73
2022/03/27 00:17:18;;;;;;;21.92;10.15;;;;;;;10.95;30.39;94722.50;4962127;28;20036;-75
2022/03/27 00:19:44;;;;;;;16.73;9.98;;;;;;;11.02;30.20;94724.75;4965414;28;21443;-75
2022/03/27 00:22:09;;;;;;;26.35;10.77;;;;;;;10.99;30.28;94704.84;4957289;28;20124;-76
2022/03/27 00:24:35;;;;;;;19.75;8.73;;;;;;;10.91;30.50;94716.16;4965694;28;20022;-74
2022/03/27 00:27:01;;;;;;;19.67;9.25;;;;;;;10.78;30.98;94714.25;4965225;28;20607;-74
2022/03/27 00:29:26;;;;;;;14.43;7.80;;;;;;;10.47;31.17;94681.25;4957529;28;20089;-73
2022/03/27 00:31:51;;;;;;;15.77;7.53;;;;;;;10.61;31.30;94714.03;4967558;28;20125;-74
2022/03/27 00:34:19;;;;;;;16.20;8.25;;;;;;;10.56;31.39;94696.25;4975171;28;20121;-74
2022/03/27 00:36:45;;;;;;;16.17;8.52;;;;;;;10.43;31.14;94685.56;4962298;28;20465;-74
2022/03/27 00:39:15;;;;;;;20.70;9.65;;;;;;;10.59;31.25;94705.53;4951164;28;20026;-72
2022/03/27 00:41:40;;;;;;;19.42;7.88;;;;;;;10.09;31.22;94628.13;4983481;28;20576;-74
2022/03/27 00:44:06;;;;;;;22.40;10.52;;;;;;;10.59;30.86;94689.56;4963178;28;20390;-73
2022/03/27 00:46:31;;;;;;;25.98;10.75;;;;;;;10.30;31.02;94682.56;4958101;28;20243;-74
2022/03/27 00:48:57;;;;;;;30.80;10.27;;;;;;;10.47;31.21;94687.34;4960532;28;20039;-75
2022/03/27 00:51:23;;;;;;;19.75;10.02;;;;;;;10.47;31.06;94691.88;4959911;28;20108;-75
2022/03/27 00:53:48;;;;;;;18.77;10.77;;;;;;;10.40;31.53;94686.94;4968734;28;20034;-74
2022/03/27 00:56:14;;;;;;;19.63;10.02;;;;;;;10.27;31.45;94667.16;4966070;28;20145;-74
2022/03/27 00:58:39;;;;;;;24.20;12.18;;;;;;;10.21;31.56;94684.28;4963110;28;20896;-75
2022/03/27 01:01:23;;;;;;;24.35;9.90;;;;;;;9.89;32.36;94665.63;4964892;28;20045;-73
2022/03/27 01:03:53;;;;;;;21.20;10.32;;;;;;;9.91;32.26;94683.94;4963979;28;20042;-74
2022/03/27 01:06:31;;;;;;;22.33;11.60;;;;;;;9.92;32.17;94678.34;4961000;28;20035;-72
2022/03/27 01:11:44;;;;;;;13.18;6.22;;;;;;;9.78;31.04;94669.50;4962236;28;20138;-72
2022/03/27 01:14:09;;;;;;;23.75;10.15;;;;;;;9.51;31.53;94677.28;4994728;28;20391;-74
2022/03/27 01:16:48;;;;;;;20.77;10.68;;;;;;;9.34;32.33;94662.63;4963168;28;20030;-74
2022/03/27 01:19:15;;;;;;;19.55;9.95;;;;;;;9.14;32.75;94651.47;4969788;28;20126;-74
2022/03/27 01:21:49;;;;;;;23.38;10.43;;;;;;;9.29;32.75;94672.53;4967408;28;20698;-75
2022/03/27 01:24:16;;;;;;;24.50;10.23;;;;;;;9.48;32.75;94665.38;4975251;28;20080;-72
2022/03/27 01:26:43;;;;;;;20.45;10.60;;;;;;;9.62;32.72;94682.19;4965121;28;20513;-74
2022/03/27 01:29:08;;;;;;;20.13;9.65;;;;;;;8.98;32.81;94666.75;4959304;28;20497;-75
2022/03/27 01:31:34;;;;;;;19.63;10.32;;;;;;;9.23;33.38;94678.97;4962073;28;20113;-74
2022/03/27 01:34:00;;;;;;;16.10;8.65;;;;;;;8.83;34.33;94665.03;4964312;28;20536;-74
2022/03/27 01:36:34;;;;;;;15.13;9.07;;;;;;;8.91;33.53;94645.03;4965041;28;20034;-74
2022/03/27 01:39:02;;;;;;;19.77;10.32;;;;;;;9.21;33.22;94681.91;4961305;28;20786;-74
2022/03/27 01:41:27;;;;;;;17.45;9.45;;;;;;;9.16;33.14;94657.28;4961603;28;20069;-76
2022/03/27 01:43:53;;;;;;;16.40;9.02;;;;;;;9.12;33.21;94664.22;4965687;28;20392;-74
2022/03/27 01:46:22;;;;;;;23.35;9.43;;;;;;;9.32;32.86;94677.25;4969153;28;20521;-72
2022/03/27 01:48:48;;;;;;;19.55;8.85;;;;;;;8.76;33.76;94682.34;4959076;28;20042;-74
2022/03/27 01:51:13;;;;;;;16.10;9.45;;;;;;;9.04;33.31;94660.31;4994006;28;20045;-73
2022/03/27 01:53:40;;;;;;;20.33;9.40;;;;;;;9.14;33.27;94676.16;4956563;28;20704;-74
2022/03/27 01:56:07;;;;;;;17.83;8.95;;;;;;;9.27;33.06;94675.47;4961494;28;20046;-73
2022/03/27 01:58:38;;;;;;;18.90;10.23;;;;;;;9.27;33.13;94675.47;4959419;28;20034;-75
2022/03/27 02:01:06;;;;;;;22.08;9.88;;;;;;;9.26;32.93;94673.09;4981708;28;20744;-74
2022/03/27 02:03:31;;;;;;;18.42;9.88;;;;;;;8.65;33.97;94668.41;4963546;28;21031;-74
2022/03/27 02:05:57;;;;;;;29.02;10.85;;;;;;;8.78;34.08;94673.03;4963995;28;20022;-73
2022/03/27 02:08:23;;;;;;;23.40;10.82;;;;;;;8.96;33.67;94685.59;4971136;28;20054;-74
2022/03/27 02:10:50;;;;;;;20.13;8.90;;;;;;;9.02;33.42;94683.66;4958978;28;20038;-74
2022/03/27 02:13:19;;;;;;;19.05;8.60;;;;;;;9.02;33.50;94671.19;4967374;28;20244;-74
2022/03/27 02:15:46;;;;;;;20.15;8.98;;;;;;;8.86;33.42;94647.75;4955380;28;20361;-75
2022/03/27 02:18:13;;;;;;;20.05;8.93;;;;;;;8.89;33.72;94674.53;4965043;28;20034;-74
2022/03/27 02:20:39;;;;;;;35.03;10.77;;;;;;;9.06;33.44;94684.69;4962430;28;20042;-74
2022/03/27 02:23:07;;;;;;;21.08;9.95;;;;;;;8.91;33.74;94687.50;4967512;28;20038;-75
2022/03/27 02:25:32;;;;;;;25.30;13.35;;;;;;;8.53;33.91;94621.03;4967666;28;20050;-74
2022/03/27 02:27:58;;;;;;;20.00;9.95;;;;;;;8.89;33.92;94679.03;4958444;28;20731;-75
2022/03/27 02:30:27;;;;;;;19.23;10.15;;;;;;;8.44;34.22;94628.03;4980307;28;20633;-72
2022/03/27 02:32:52;;;;;;;21.02;10.10;;;;;;;8.74;34.03;94679.19;4970148;28;20049;-74
2022/03/27 02:35:18;;;;;;;19.00;9.45;;;;;;;8.72;34.40;94679.47;4982139;28;20042;-75
2022/03/27 02:37:44;;;;;;;18.23;9.88;;;;;;;8.80;34.32;94681.53;4987281;28;20389;-73
2022/03/27 02:40:09;;;;;;;21.85;8.65;;;;;;;8.71;33.73;94682.38;4982636;28;20069;-74
2022/03/27 02:42:35;;;;;;;23.27;11.52;;;;;;;8.26;34.54;94657.09;4964963;28;20027;-74
2022/03/27 02:45:00;;;;;;;18.75;9.80;;;;;;;7.05;36.71;94698.22;4958922;28;20485;-75
2022/03/27 02:47:26;;;;;;;19.08;9.75;;;;;;;7.83;35.78;94698.44;4964600;28;20096;-74
2022/03/27 02:49:51;;;;;;;20.17;10.18;;;;;;;8.00;35.26;94672.38;4958266;28;20072;-74
2022/03/27 02:52:17;;;;;;;20.67;9.00;;;;;;;8.08;34.98;94685.03;4969116;28;20034;-74
2022/03/27 02:54:44;;;;;;;18.25;8.32;;;;;;;8.30;34.41;94698.66;4959404;28;20070;-75
2022/03/27 02:57:10;;;;;;;24.75;8.38;;;;;;;8.31;34.45;94710.84;4958904;28;20046;-75
2022/03/27 02:59:36;;;;;;;13.88;6.65;;;;;;;7.99;34.38;94665.50;4963924;28;20035;-74
2022/03/27 03:02:03;;;;;;;15.13;7.85;;;;;;;8.39;34.01;94715.56;4959051;28;20400;-73
2022/03/27 03:04:33;;;;;;;16.00;7.15;;;;;;;7.98;34.16;94648.00;4957302;28;20038;-73
2022/03/27 03:07:00;;;;;;;13.32;7.63;;;;;;;8.15;34.48;94698.75;4956195;28;20505;-76
2022/03/27 03:09:25;;;;;;;16.50;7.38;;;;;;;8.41;34.26;94718.69;4982750;28;20097;-74
2022/03/27 03:11:51;;;;;;;12.73;6.40;;;;;;;8.36;34.39;94712.66;4961343;28;20456;-72
2022/03/27 03:14:17;;;;;;;19.00;7.35;;;;;;;8.26;34.34;94712.75;4959992;28;20045;-74
2022/03/27 03:16:42;;;;;;;16.73;7.28;;;;;;;8.07;35.31;94708.06;4976845;28;20513;-75
2022/03/27 03:19:08;;;;;;;16.05;8.30;;;;;;;8.15;35.04;94712.00;4965283;28;20030;-73
2022/03/27 03:21:34;;;;;;;15.38;6.65;;;;;;;7.90;35.05;94667.94;4962909;28;20143;-75
2022/03/27 03:23:59;;;;;;;16.52;7.43;;;;;;;7.80;35.41;94680.44;4963199;28;20031;-74
2022/03/27 03:26:25;;;;;;;12.85;6.85;;;;;;;7.98;35.41;94703.63;4966427;28;20046;-74
2022/03/27 03:28:50;;;;;;;16.30;6.15;;;;;;;7.94;35.29;94703.41;4964077;28;20050;-73
2022/03/27 03:31:16;;;;;;;15.73;7.13;;;;;;;8.04;35.44;94710.50;4965434;28;20408;-74
2022/03/27 03:33:41;;;;;;;14.88;6.82;;;;;;;7.95;35.48;94701.53;4962408;28;20117;-72
2022/03/27 03:36:10;;;;;;;13.27;6.78;;;;;;;7.99;35.31;94691.97;4966403;28;20018;-74
2022/03/27 03:38:36;;;;;;;14.80;7.00;;;;;;;8.05;35.25;94701.47;4967975;28;20425;-73
2022/03/27 03:41:05;;;;;;;11.90;7.32;;;;;;;7.94;35.31;94678.75;4966073;28;20593;-73
2022/03/27 03:43:32;;;;;;;11.52;6.70;;;;;;;7.94;35.49;94710.56;4961751;28;20600;-74
2022/03/27 03:45:58;;;;;;;10.88;6.00;;;;;;;7.92;35.24;94699.47;4961581;28;20043;-74
2022/03/27 03:48:23;;;;;;;10.05;7.10;;;;;;;8.03;35.37;94715.00;4961627;28;20497;-74
2022/03/27 03:50:49;;;;;;;17.92;7.18;;;;;;;8.10;35.29;94704.09;4962453;28;20137;-72
2022/03/27 03:53:15;;;;;;;16.92;6.85;;;;;;;7.45;36.29;94703.38;4964311;28;20049;-75
2022/03/27 03:55:40;;;;;;;13.40;7.03;;;;;;;7.69;35.89;94711.44;4961708;28;20482;-74
2022/03/27 03:58:06;;;;;;;14.77;6.68;;;;;;;7.73;35.53;94709.88;4963985;28;21034;-74
2022/03/27 04:00:31;;;;;;;13.90;7.68;;;;;;;7.84;35.52;94722.00;4965769;28;20104;-74
2022/03/27 04:02:57;;;;;;;12.95;6.40;;;;;;;7.83;35.24;94709.81;4963927;28;20716;-74
2022/03/27 04:05:22;;;;;;;11.68;7.28;;;;;;;7.73;35.92;94719.69;4959318;28;20394;-74
2022/03/27 04:07:48;;;;;;;16.50;6.88;;;;;;;7.58;35.98;94707.28;4962697;28;20381;-74
2022/03/27 04:10:15;;;;;;;15.75;7.43;;;;;;;7.44;35.43;94666.56;4965748;28;20138;-75
2022/03/27 04:12:40;;;;;;;15.35;6.38;;;;;;;7.09;36.32;94664.88;4961294;28;20031;-75
2022/03/27 04:15:06;;;;;;;19.83;7.68;;;;;;;7.14;36.78;94733.66;4956636;28;20022;-72
2022/03/27 04:17:31;;;;;;;15.00;7.47;;;;;;;6.62;38.19;94737.44;4965570;28;20502;-73
2022/03/27 04:19:57;;;;;;;14.80;6.88;;;;;;;6.83;37.60;94739.00;4963763;28;20609;-73
2022/03/27 04:22:22;;;;;;;14.85;6.55;;;;;;;7.01;37.31;94744.78;4956484;28;20046;-71
2022/03/27 04:24:48;;;;;;;15.10;6.75;;;;;;;7.06;37.10;94740.28;4965436;28;20068;-72
2022/03/27 04:27:13;;;;;;;14.90;6.72;;;;;;;7.07;37.06;94741.84;4964968;28;20361;-73
2022/03/27 04:29:38;;;;;;;12.90;6.53;;;;;;;7.18;36.84;94755.88;4970657;28;20476;-70
2022/03/27 04:32:05;;;;;;;16.75;7.90;;;;;;;7.23;36.94;94756.66;4963716;28;20046;-74
2022/03/27 04:34:30;;;;;;;26.95;7.05;;;;;;;7.32;36.64;94748.94;4966831;28;20035;-73
2022/03/27 04:36:56;;;;;;;11.55;6.63;;;;;;;7.35;36.46;94751.03;4970373;28;21841;-71
2022/03/27 04:39:22;;;;;;;15.68;6.93;;;;;;;7.35;36.51;94743.09;4959066;28;20483;-74
2022/03/27 04:41:48;;;;;;;17.50;7.38;;;;;;;7.43;36.43;94742.56;4964639;28;20132;-71
2022/03/27 04:44:14;;;;;;;14.02;6.57;;;;;;;7.42;36.31;94725.09;4986218;28;20034;-71
2022/03/27 04:46:39;;;;;;;14.23;6.97;;;;;;;7.73;35.97;94747.72;4960738;28;20053;-71
2022/03/27 04:49:05;;;;;;;28.45;7.47;;;;;;;7.77;35.72;94763.09;4970381;28;20038;-73
2022/03/27 04:51:31;;;;;;;17.60;7.97;;;;;;;7.37;36.30;94743.63;4963326;28;20744;-74
2022/03/27 04:53:57;;;;;;;16.08;7.20;;;;;;;7.44;36.78;94756.56;4968486;28;20767;-74
2022/03/27 04:56:26;;;;;;;14.10;6.32;;;;;;;7.65;36.22;94764.16;4965737;28;20046;-71
2022/03/27 04:58:51;;;;;;;19.30;7.28;;;;;;;7.59;36.32;94767.09;4967332;28;20500;-72
2022/03/27 05:01:17;;;;;;;15.20;8.15;;;;;;;7.64;36.46;94749.34;4963963;28;20046;-71
2022/03/27 05:03:42;;;;;;;16.38;8.15;;;;;;;7.87;35.97;94765.69;4954720;28;20529;-72
2022/03/27 05:06:08;;;;;;;11.98;6.80;;;;;;;8.02;35.79;94776.22;4965882;28;20765;-71
2022/03/27 05:08:34;;;;;;;13.20;7.95;;;;;;;8.13;35.53;94788.31;4960935;28;20082;-74
2022/03/27 05:10:59;;;;;;;15.35;7.97;;;;;;;8.23;35.45;94790.91;4964236;28;20129;-72
2022/03/27 05:13:26;;;;;;;14.35;7.55;;;;;;;8.36;35.66;94795.63;4965097;28;20320;-73
2022/03/27 05:15:53;;;;;;;20.27;9.30;;;;;;;8.37;35.64;94789.25;4966342;28;20457;-74
2022/03/27 05:18:19;;;;;;;16.88;8.32;;;;;;;8.61;34.83;94796.53;4984829;28;20706;-73
2022/03/27 05:20:45;;;;;;;20.48;8.68;;;;;;;8.14;35.57;94774.03;4964163;28;20054;-72
2022/03/27 05:23:10;;;;;;;20.10;9.65;;;;;;;7.93;36.01;94794.53;4966634;28;20413;-72
2022/03/27 05:25:49;;;;;;;15.90;9.60;;;;;;;8.30;35.55;94794.06;4965247;28;20049;-72
2022/03/27 05:28:15;;;;;;;21.50;10.32;;;;;;;8.42;35.56;94788.41;4963529;28;20076;-71
2022/03/27 05:30:41;;;;;;;19.00;9.57;;;;;;;6.86;38.13;94799.28;4960903;28;20771;-73
2022/03/27 05:33:07;;;;;;;21.73;10.57;;;;;;;7.32;37.43;94783.34;4963781;28;20031;-72
2022/03/27 05:35:33;;;;;;;22.48;9.70;;;;;;;7.86;37.13;94783.44;4966348;28;20026;-71
2022/03/27 05:38:01;;;;;;;19.95;9.75;;;;;;;6.96;38.33;94789.75;4964564;28;20521;-70
2022/03/27 05:40:28;;;;;;;18.33;9.93;;;;;;;6.66;38.79;94790.53;4965095;28;20436;-72
2022/03/27 05:42:53;;;;;;;18.63;8.55;;;;;;;7.15;38.45;94767.75;4969013;28;20042;-72
2022/03/27 05:45:19;;;;;;;22.45;9.73;;;;;;;6.77;39.23;94787.66;4964639;28;20089;-71
2022/03/27 05:47:45;;;;;;;22.80;9.40;;;;;;;6.56;39.28;94786.06;4969888;28;20176;-72
2022/03/27 05:50:13;;;;;;;20.75;10.32;;;;;;;6.22;40.49;94816.66;4956071;28;20642;-73
2022/03/27 05:52:41;;;;;;;17.38;10.00;;;;;;;6.47;40.65;94806.13;4969729;28;20516;-71
2022/03/27 05:55:07;;;;;;;20.52;11.15;;;;;;;5.83;41.40;94814.41;4955925;28;20129;-73
2022/03/27 05:57:32;;;;;;;27.30;12.25;;;;;;;5.88;40.87;94797.78;4966595;28;20042;-72
2022/03/27 06:00:04;;;;;;;24.88;11.18;;;;;;;5.75;41.53;94817.56;4962610;28;20775;-74
2022/03/27 06:02:30;;;;;;;23.52;10.45;;;;;;;6.42;40.55;94808.78;4967740;28;20081;-73
2022/03/27 06:04:55;;;;;;;17.85;10.32;;;;;;;6.40;39.81;94808.25;4963208;28;20172;-74
2022/03/27 06:07:21;;;;;;;17.80;9.45;;;;;;;6.06;40.23;94780.69;4967013;28;20393;-74
2022/03/27 06:09:46;;;;;;;19.73;9.68;;;;;;;6.37;40.28;94821.97;4966898;28;20067;-72
2022/03/27 06:12:12;;;;;;;22.92;9.75;;;;;;;6.63;40.20;94802.47;4959400;28;20464;-74
2022/03/27 06:14:37;;;;;;;23.17;10.20;;;;;;;6.71;39.32;94787.91;4964351;28;20119;-74
2022/03/27 06:17:03;;;;;;;19.55;9.82;;;;;;;6.61;39.98;94824.91;4973274;28;20030;-73
2022/03/27 06:19:30;;;;;;;19.77;9.95;;;;;;;6.34;38.95;94704.41;4972123;28;20125;-73
2022/03/27 06:21:57;;;;;;;18.80;9.57;;;;;;;7.10;38.46;94814.59;4958270;28;20493;-74
2022/03/27 06:24:23;;;;;;;19.15;9.23;;;;;;;6.55;39.13;94778.41;4964145;28;20039;-73
2022/03/27 06:26:49;;;;;;;18.98;9.38;;;;;;;6.42;39.68;94821.97;4969768;28;20086;-72
2022/03/27 06:29:14;;;;;;;21.10;8.88;;;;;;;6.98;38.44;94804.31;4963795;28;20038;-70
2022/03/27 06:31:40;;;;;;;22.77;9.63;;;;;;;6.97;38.76;94809.84;4966302;28;20096;-73
2022/03/27 06:34:06;;;;;;;16.77;9.02;;;;;;;7.33;38.37;94795.53;4957041;28;20713;-73
2022/03/27 06:36:35;;;;;;;18.38;8.73;;;;;;;7.91;37.09;94814.41;4973013;28;20103;-71
2022/03/27 06:39:05;;;;;;;20.63;10.13;;;;;;;8.43;36.09;94813.88;4979827;28;20141;-74
2022/03/27 06:41:30;;;;;;;23.50;9.95;;;;;;;7.45;37.07;94734.31;4982828;28;20038;-74
2022/03/27 06:43:56;;;;;;;17.05;8.75;;;;;;;8.58;36.69;94809.25;4964082;28;20049;-71
2022/03/27 06:46:25;;;;;;;21.42;8.43;;;;;;;8.64;35.67;94814.53;4967105;28;20041;-74
2022/03/27 06:48:51;;;;;;;21.23;8.57;;;;;;;8.26;36.67;94819.53;4967107;28;20148;-74
2022/03/27 06:51:17;;;;;;;25.48;10.32;;;;;;;8.04;37.24;94821.75;4968429;28;20903;-72
2022/03/27 06:53:43;;;;;;;23.77;10.88;;;;;;;8.45;36.43;94823.16;4966024;28;20144;-73
2022/03/27 06:56:09;;;;;;;17.63;9.52;;;;;;;7.89;37.02;94813.88;4966033;28;20245;-70
2022/03/27 06:58:35;;;;;;;20.45;10.27;;;;;;;8.03;37.22;94822.81;4963572;28;20084;-73
2022/03/27 07:03:44;;;;;;;21.38;10.80;;;;;;;9.29;34.79;94821.97;4966477;28;20501;-72
2022/03/27 07:06:10;;;;;;;25.73;11.10;;;;;;;9.49;34.63;94805.03;4966370;28;20042;-73
2022/03/27 07:08:37;;;;;;;26.38;9.40;;;;;;;9.49;34.69;94830.81;4963590;28;20043;-71
2022/03/27 07:11:09;;;;;;;18.50;10.48;;;;;;;9.45;35.08;94831.38;4968641;28;20048;-74
2022/03/27 07:13:41;;;;;;;23.17;10.75;;;;;;;10.03;33.67;94830.47;4984167;28;20463;-72
2022/03/27 07:16:13;;;;;;;29.48;13.30;;;;;;;10.10;34.58;94831.72;4966091;28;20501;-74
2022/03/27 07:18:38;;;;;;;68.18;22.00;;;;;;;10.36;33.46;94828.72;4964391;28;20288;-71
2022/03/27 07:21:04;;;;;;;23.13;12.30;;;;;;;10.19;33.92;94810.59;4964815;28;20524;-71
2022/03/27 07:23:29;;;;;;;39.50;14.27;;;;;;;10.55;33.70;94832.22;4975045;28;20030;-74
2022/03/27 07:25:56;;;;;;;21.98;12.00;;;;;;;9.97;34.22;94842.25;4952043;28;20062;-73
2022/03/27 07:28:22;;;;;;;26.00;11.77;;;;;;;10.10;33.60;94825.59;4965586;28;20045;-72
2022/03/27 07:30:48;;;;;;;19.52;11.30;;;;;;;10.36;34.07;94824.25;4960985;28;20049;-73
2022/03/27 07:33:15;;;;;;;36.53;15.73;;;;;;;11.01;33.35;94827.78;4996863;28;20037;-73
2022/03/27 07:35:41;;;;;;;25.42;11.27;;;;;;;11.18;32.72;94814.72;4961484;28;20040;-74
2022/03/27 07:38:07;;;;;;;27.30;12.23;;;;;;;10.50;33.34;94824.31;4963968;28;20038;-74
2022/03/27 07:40:33;;;;;;;32.13;13.35;;;;;;;11.06;33.02;94816.25;4962919;28;20464;-72
2022/03/27 07:43:00;;;;;;;27.02;13.45;;;;;;;10.82;32.60;94804.94;4963880;28;21083;-74
2022/03/27 07:45:28;;;;;;;24.52;12.93;;;;;;;10.68;33.20;94810.19;4980466;28;20058;-74
2022/03/27 07:47:55;;;;;;;39.10;16.55;;;;;;;10.68;33.39;94820.84;4966714;28;20038;-71
2022/03/27 07:50:23;;;;;;;33.17;12.15;;;;;;;10.83;32.84;94785.22;4964979;28;20030;-72
2022/03/27 07:52:48;;;;;;;30.23;14.02;;;;;;;11.27;32.39;94814.03;4968041;28;21036;-73
2022/03/27 07:55:16;;;;;;;27.70;12.93;;;;;;;11.76;31.90;94808.91;4973757;28;20034;-71
2022/03/27 07:57:44;;;;;;;20.67;12.32;;;;;;;11.82;31.26;94806.94;4965013;28;20045;-73
2022/03/27 08:00:11;;;;;;;26.83;13.68;;;;;;;11.59;32.24;94758.06;4962341;28;20551;-74
2022/03/27 08:02:37;;;;;;;49.00;14.60;;;;;;;11.81;31.60;94784.81;4965608;28;20178;-71
2022/03/27 08:05:05;;;;;;;17.33;8.07;;;;;;;12.01;28.29;94811.09;4967760;28;20429;-70
2022/03/27 08:07:31;;;;;;;15.45;7.22;;;;;;;11.83;28.31;94785.31;4963214;28;20038;-73
2022/03/27 08:09:57;;;;;;;18.95;7.60;;;;;;;12.02;28.44;94790.56;4967241;28;20081;-74
2022/03/27 08:12:23;;;;;;;19.13;8.48;;;;;;;12.00;27.86;94769.50;4966113;28;20497;-73
2022/03/27 08:14:48;;;;;;;17.20;8.02;;;;;;;12.02;27.52;94780.69;4963554;28;20378;-72
2022/03/27 08:17:16;;;;;;;22.13;8.48;;;;;;;11.97;27.73;94785.31;4960238;28;20146;-74
2022/03/27 08:19:43;;;;;;;15.75;7.88;;;;;;;12.11;27.91;94782.63;4965642;28;20138;-71
2022/03/27 08:22:09;;;;;;;19.05;8.73;;;;;;;12.18;27.93;94794.47;4975528;28;20034;-72
2022/03/27 08:24:35;;;;;;;17.20;7.85;;;;;;;12.11;27.77;94767.44;4963114;28;20396;-74
2022/03/27 08:27:02;;;;;;;20.92;7.53;;;;;;;12.23;27.53;94789.03;4968928;28;20026;-73
2022/03/27 08:29:33;;;;;;;18.08;7.80;;;;;;;12.13;27.51;94791.09;4964006;28;20049;-72
2022/03/27 08:32:05;;;;;;;18.38;9.20;;;;;;;12.34;28.05;94789.59;4958294;28;20901;-74
2022/03/27 08:34:34;;;;;;;17.98;7.97;;;;;;;12.33;27.47;94796.81;4963799;28;20038;-72
2022/03/27 08:37:02;;;;;;;16.25;8.40;;;;;;;12.42;27.65;94778.19;4967459;28;20038;-72
2022/03/27 08:39:28;;;;;;;15.80;7.53;;;;;;;12.34;27.56;94749.59;4981630;28;20396;-73
2022/03/27 08:41:54;;;;;;;20.10;8.05;;;;;;;12.14;27.13;94724.16;4967449;28;20034;-73
2022/03/27 08:44:21;;;;;;;18.15;8.50;;;;;;;12.46;27.17;94768.53;4965225;28;20497;-73
2022/03/27 08:46:50;;;;;;;20.40;8.77;;;;;;;12.38;27.61;94766.56;4964212;28;20138;-74
2022/03/27 08:49:39;;;;;;;18.73;8.98;;;;;;;12.39;27.33;94781.47;4965165;28;20608;-71
2022/03/27 08:52:30;;;;;;;15.88;7.53;;;;;;;12.28;27.59;94774.78;4965449;28;20051;-71
2022/03/27 08:55:05;;;;;;;18.02;8.30;;;;;;;12.36;27.16;94763.41;4962610;28;20042;-72
2022/03/27 08:57:53;;;;;;;16.38;8.75;;;;;;;12.42;27.37;94778.19;4964330;28;20163;-74
2022/03/27 09:00:24;;;;;;;18.55;7.78;;;;;;;12.17;27.25;94754.78;4960230;28;20590;-73
2022/03/27 09:02:50;;;;;;;17.02;8.38;;;;;;;12.36;27.40;94774.09;4955623;28;20043;-72
2022/03/27 09:05:17;;;;;;;22.65;9.07;;;;;;;12.50;26.95;94772.16;4957121;28;20575;-73
2022/03/27 09:07:43;;;;;;;16.17;7.03;;;;;;;12.45;27.05;94745.59;4961780;28;20054;-74
2022/03/27 09:10:11;;;;;;;19.42;8.23;;;;;;;12.55;27.36;94753.38;4960296;28;20859;-74
2022/03/27 09:12:37;;;;;;;15.93;7.60;;;;;;;12.76;27.12;94770.50;4963085;28;20089;-73
2022/03/27 09:15:07;;;;;;;14.38;8.13;;;;;;;12.95;26.86;94788.25;4965353;28;20019;-74
2022/03/27 09:17:56;;;;;;;16.05;7.72;;;;;;;12.92;26.73;94767.47;4966713;28;20046;-71
2022/03/27 09:21:00;;;;;;;19.42;7.93;;;;;;;12.91;27.01;94789.94;4988518;28;20839;-74
2022/03/27 09:23:30;;;;;;;22.60;9.23;;;;;;;12.94;26.63;94757.28;4944435;28;20464;-74
2022/03/27 09:26:00;;;;;;;18.92;7.72;;;;;;;13.11;26.53;94771.53;4959275;28;20038;-71
2022/03/27 09:28:39;;;;;;;15.23;8.40;;;;;;;13.11;26.09;94754.72;4965157;28;20969;-73
2022/03/27 09:31:13;;;;;;;17.73;7.78;;;;;;;13.31;26.41;94770.22;4964911;28;20047;-73
2022/03/27 09:33:46;;;;;;;15.50;8.00;;;;;;;13.32;26.57;94758.44;4978677;28;20042;-74
2022/03/27 09:36:26;;;;;;;15.65;7.65;;;;;;;13.36;25.31;94764.75;4962478;28;20026;-74
2022/03/27 09:39:06;;;;;;;18.08;8.00;;;;;;;13.45;25.78;94756.75;4961898;28;20072;-72
2022/03/27 09:41:44;;;;;;;12.95;6.50;;;;;;;13.36;25.17;94722.00;4958172;28;20940;-72
2022/03/27 09:44:14;;;;;;;16.70;7.82;;;;;;;13.62;25.15;94741.63;4966098;28;20401;-72
2022/03/27 09:46:51;;;;;;;16.42;7.50;;;;;;;13.65;25.56;94751.69;4964182;28;20074;-71
2022/03/27 09:49:19;;;;;;;14.15;7.55;;;;;;;13.79;25.01;94756.94;4952095;28;20453;-74
2022/03/27 09:51:59;;;;;;;17.70;7.25;;;;;;;13.75;24.34;94746.06;4957080;28;20443;-72
2022/03/27 09:54:27;;;;;;;13.27;7.13;;;;;;;13.78;24.97;94749.22;4967296;28;20046;-73
2022/03/27 09:56:53;;;;;;;14.10;6.78;;;;;;;13.87;24.53;94752.72;4950491;28;20031;-72
2022/03/27 09:59:30;;;;;;;11.80;6.30;;;;;;;13.92;23.81;94740.00;4960761;28;20077;-72
2022/03/27 10:02:17;;;;;;;16.40;6.50;;;;;;;13.78;24.03;94727.84;4957080;28;20232;-72
2022/03/27 10:05:00;;;;;;;14.48;6.57;;;;;;;13.96;24.35;94730.25;4951700;28;20051;-73
2022/03/27 10:07:27;;;;;;;15.80;7.03;;;;;;;14.09;24.29;94712.47;4967719;28;20153;-74
2022/03/27 10:09:54;;;;;;;13.30;5.63;;;;;;;14.28;24.26;94714.84;4967882;28;20042;-74
2022/03/27 10:12:25;;;;;;;16.58;7.30;;;;;;;14.48;23.57;94723.03;4960361;28;20037;-74
2022/03/27 10:14:55;;;;;;;11.57;5.80;;;;;;;14.45;23.36;94722.91;4960924;28;20185;-74
2022/03/27 10:17:26;;;;;;;12.40;6.25;;;;;;;14.42;22.91;94713.59;4965566;28;20069;-73
2022/03/27 10:19:54;;;;;;;12.38;5.60;;;;;;;14.47;22.83;94713.44;4965793;28;20161;-72
2022/03/27 10:22:21;;;;;;;13.40;6.13;;;;;;;14.49;23.12;94694.41;4959211;28;20133;-71
2022/03/27 10:24:51;;;;;;;13.15;6.72;;;;;;;14.53;22.15;94696.16;4959852;28;20054;-74
2022/03/27 10:27:23;;;;;;;10.88;5.95;;;;;;;14.64;22.14;94706.53;4968125;28;20052;-74
2022/03/27 10:29:49;;;;;;;15.10;6.50;;;;;;;14.68;22.52;94704.78;4963274;28;20050;-74
2022/03/27 10:32:17;;;;;;;17.38;7.85;;;;;;;14.70;22.83;94713.31;4955205;28;20225;-74
2022/03/27 10:34:54;;;;;;;24.98;13.20;;;;;;;14.89;22.34;94706.50;4978409;28;20501;-74
2022/03/27 10:37:41;;;;;;;23.15;9.30;;;;;;;14.91;22.06;94698.16;4964324;28;20046;-72
2022/03/27 10:40:17;;;;;;;50.95;18.75;;;;;;;15.03;22.12;94698.28;4982865;28;20088;-74
2022/03/27 10:42:54;;;;;;;24.75;8.75;;;;;;;15.17;21.60;94709.59;4968303;28;20554;-71
2022/03/27 10:45:21;;;;;;;25.20;11.02;;;;;;;15.06;21.50;94680.78;4978307;28;20057;-71
2022/03/27 10:48:11;;;;;;;14.52;6.55;;;;;;;15.03;21.63;94692.91;4966206;28;20540;-73
2022/03/27 10:50:52;;;;;;;13.57;5.55;;;;;;;14.99;21.36;94686.63;4976049;28;20088;-75
2022/03/27 10:53:22;;;;;;;13.30;6.30;;;;;;;15.08;21.65;94690.06;4959093;28;20044;-75
2022/03/27 10:55:50;;;;;;;11.02;6.47;;;;;;;15.24;21.79;94687.66;4959038;28;20770;-72
2022/03/27 10:58:38;;;;;;;32.65;14.60;;;;;;;15.25;21.86;94702.63;4960882;28;20451;-75
2022/03/27 11:01:23;;;;;;;51.53;19.77;;;;;;;15.33;22.43;94686.53;4963483;28;20046;-73
2022/03/27 11:04:04;;;;;;;16.27;7.80;;;;;;;15.36;21.95;94691.22;4950751;28;20522;-71
2022/03/27 11:06:31;;;;;;;14.27;6.90;;;;;;;15.30;21.83;94681.03;4960909;28;20655;-74
2022/03/27 11:08:58;;;;;;;15.27;7.70;;;;;;;15.35;21.61;94670.88;4963681;28;20092;-72
2022/03/27 11:11:43;;;;;;;15.32;7.20;;;;;;;15.32;21.45;94673.44;4960678;28;20041;-75
2022/03/27 11:14:10;;;;;;;15.17;7.70;;;;;;;15.52;21.36;94675.44;4971263;28;20685;-73
2022/03/27 11:17:05;;;;;;;11.80;6.72;;;;;;;15.58;20.80;94670.66;4962510;28;20402;-73
2022/03/27 11:19:46;;;;;;;14.68;7.65;;;;;;;15.67;21.59;94668.72;4963056;28;20449;-72
2022/03/27 11:22:43;;;;;;;19.45;6.97;;;;;;;15.73;21.53;94667.44;4960254;28;20662;-74
2022/03/27 11:25:45;;;;;;;11.18;6.90;;;;;;;15.71;22.04;94666.97;4966367;28;20105;-73
2022/03/27 11:28:12;;;;;;;13.30;6.82;;;;;;;15.76;21.63;94658.72;4960005;28;20081;-71
2022/03/27 11:30:59;;;;;;;12.23;7.55;;;;;;;15.78;21.69;94643.13;4958924;28;20038;-72
2022/03/27 11:33:30;;;;;;;13.18;6.57;;;;;;;16.01;21.61;94648.94;4978379;28;20192;-71
2022/03/27 11:36:04;;;;;;;13.32;7.40;;;;;;;16.08;22.20;94652.69;4954012;28;20580;-72
2022/03/27 11:38:51;;;;;;;14.85;6.97;;;;;;;16.20;21.48;94649.28;4967241;28;20129;-72